createdAt,value
2023-03-16T00:00:09.921Z,95183.99
2023-03-16T00:02:57.937Z,95187.49
2023-03-16T00:05:26.019Z,95190.04
2023-03-16T00:07:54.051Z,95190.89
2023-03-16T00:10:27.445Z,95190.48
2023-03-16T00:12:56.733Z,95190.89
2023-03-16T00:15:24.824Z,95191.00
2023-03-16T00:17:53.237Z,95194.66
2023-03-16T00:20:21.295Z,95201.29
2023-03-16T00:22:49.285Z,95196.95
2023-03-16T00:25:17.640Z,95195.05
2023-03-16T00:27:45.787Z,95197.86
2023-03-16T00:30:13.972Z,95194.73
2023-03-16T00:32:42.132Z,95195.31
2023-03-16T00:35:10.947Z,95196.27
2023-03-16T00:37:39.824Z,95193.32
2023-03-16T00:40:09.713Z,95196.48
2023-03-16T00:42:37.896Z,95196.63
2023-03-16T00:45:07.424Z,95195.12
2023-03-16T00:47:36.365Z,95199.95
2023-03-16T00:50:04.860Z,95199.02
2023-03-16T00:52:35.427Z,95196.58
2023-03-16T00:55:04.948Z,95195.05
2023-03-16T00:57:33.091Z,95195.56
2023-03-16T01:00:09.166Z,95196.42
2023-03-16T01:02:37.185Z,95195.80
2023-03-16T01:05:05.827Z,95198.59
2023-03-16T01:07:36.532Z,95199.02
2023-03-16T01:10:05.785Z,95202.54
2023-03-16T01:12:34.072Z,95201.90
2023-03-16T01:15:02.429Z,95206.64
2023-03-16T01:17:35.097Z,95210.23
2023-03-16T01:20:08.151Z,95207.73
2023-03-16T01:22:36.354Z,95205.63
2023-03-16T01:25:05.786Z,95204.22
2023-03-16T01:27:34.021Z,95203.80
2023-03-16T01:30:02.399Z,95206.42
2023-03-16T01:32:31.553Z,95209.19
2023-03-16T01:34:59.812Z,95203.08
2023-03-16T01:37:28.053Z,95205.80
2023-03-16T01:40:00.429Z,95207.95
2023-03-16T01:42:28.647Z,95207.58
2023-03-16T01:45:05.716Z,95207.50
2023-03-16T01:47:39.887Z,95210.75
2023-03-16T01:50:14.360Z,95212.86
2023-03-16T01:52:43.816Z,95215.00
2023-03-16T01:55:15.761Z,95217.68
2023-03-16T01:57:47.393Z,95219.02
2023-03-16T02:00:23.623Z,95225.36
2023-03-16T02:03:11.851Z,95229.10
2023-03-16T02:05:56.466Z,95235.61
2023-03-16T02:08:27.587Z,95234.79
2023-03-16T02:10:57.121Z,95235.98
2023-03-16T02:13:34.021Z,95237.20
2023-03-16T02:16:08.924Z,95233.49
2023-03-16T02:18:37.505Z,95239.70
2023-03-16T02:21:20.153Z,95243.15
2023-03-16T02:23:50.894Z,95247.95
2023-03-16T02:26:29.770Z,95247.02
2023-03-16T02:29:01.292Z,95250.63
2023-03-16T02:31:30.439Z,95251.90
2023-03-16T02:33:59.246Z,95253.84
2023-03-16T02:36:28.263Z,95255.26
2023-03-16T02:38:56.341Z,95259.42
2023-03-16T02:41:25.239Z,95257.17
2023-03-16T02:44:24.457Z,95259.05
2023-03-16T02:46:59.705Z,95259.92
2023-03-16T02:49:36.067Z,95262.31
2023-03-16T02:52:08.167Z,95265.90
2023-03-16T02:54:36.283Z,95267.95
2023-03-16T02:57:05.052Z,95271.90
2023-03-16T02:59:33.418Z,95273.91
2023-03-16T03:02:28.205Z,95274.05
2023-03-16T03:04:57.121Z,95278.15
2023-03-16T03:07:31.898Z,95275.73
2023-03-16T03:10:06.164Z,95276.29
2023-03-16T03:12:34.785Z,95279.52
2023-03-16T03:15:06.003Z,95280.73
2023-03-16T03:17:40.139Z,95286.85
2023-03-16T03:20:16.306Z,95289.21
2023-03-16T03:22:47.279Z,95291.36
2023-03-16T03:25:17.319Z,95291.05
2023-03-16T03:27:47.583Z,95293.23
2023-03-16T03:30:19.910Z,95298.80
2023-03-16T03:32:49.399Z,95302.17
2023-03-16T03:35:20.557Z,95305.88
2023-03-16T03:37:49.380Z,95302.60
2023-03-16T03:40:19.910Z,95308.09
2023-03-16T03:42:51.591Z,95315.48
2023-03-16T03:45:20.762Z,95320.85
2023-03-16T03:47:48.993Z,95323.16
2023-03-16T03:50:21.177Z,95326.02
2023-03-16T03:52:58.046Z,95328.02
2023-03-16T03:55:27.007Z,95327.99
2023-03-16T03:57:55.164Z,95328.52
2023-03-16T04:00:23.371Z,95328.02
2023-03-16T04:02:51.656Z,95334.84
2023-03-16T04:05:28.501Z,95338.79
2023-03-16T04:07:57.762Z,95341.54
2023-03-16T04:10:30.676Z,95347.66
2023-03-16T04:13:01.058Z,95351.84
2023-03-16T04:15:33.251Z,95353.85
2023-03-16T04:18:13.008Z,95358.02
2023-03-16T04:20:41.581Z,95361.39
2023-03-16T04:23:10.178Z,95363.15
2023-03-16T04:25:39.248Z,95366.55
2023-03-16T04:28:07.460Z,95374.63
2023-03-16T04:30:36.734Z,95380.82
2023-03-16T04:33:15.835Z,95381.60
2023-03-16T04:35:46.473Z,95384.88
2023-03-16T04:38:18.354Z,95388.81
2023-03-16T04:40:53.442Z,95392.06
2023-03-16T04:43:24.572Z,95397.03
2023-03-16T04:45:56.311Z,95400.22
2023-03-16T04:48:25.931Z,95403.41
2023-03-16T04:50:55.078Z,95402.51
2023-03-16T04:53:23.189Z,95405.52
2023-03-16T04:55:56.120Z,95409.23
2023-03-16T04:58:25.794Z,95407.34
2023-03-16T05:00:58.373Z,95410.77
2023-03-16T05:03:31.079Z,95417.71
2023-03-16T05:05:59.689Z,95412.19
2023-03-16T05:08:28.320Z,95424.39
2023-03-16T05:10:57.765Z,95431.16
2023-03-16T05:13:26.277Z,95432.87
2023-03-16T05:15:55.231Z,95431.98
2023-03-16T05:18:28.193Z,95444.55
2023-03-16T05:20:57.246Z,95453.67
2023-03-16T05:23:27.469Z,95454.23
2023-03-16T05:26:01.196Z,95460.62
2023-03-16T05:28:31.210Z,95464.63
2023-03-16T05:31:06.046Z,95465.92
2023-03-16T05:33:39.833Z,95465.63
2023-03-16T05:36:11.256Z,95467.05
2023-03-16T05:38:39.899Z,95461.08
2023-03-16T05:41:10.525Z,95461.04
2023-03-16T05:44:11.396Z,95460.77
2023-03-16T05:46:53.677Z,95464.28
2023-03-16T05:49:22.251Z,95467.74
2023-03-16T05:51:51.086Z,95473.61
2023-03-16T05:54:19.362Z,95479.63
2023-03-16T05:56:47.576Z,95483.23
2023-03-16T05:59:18.849Z,95487.85
2023-03-16T06:01:52.502Z,95487.20
2023-03-16T06:04:22.031Z,95493.94
2023-03-16T06:06:51.789Z,95498.77
2023-03-16T06:09:26.980Z,95501.24
2023-03-16T06:11:55.640Z,95506.93
2023-03-16T06:14:24.983Z,95513.14
2023-03-16T06:16:53.929Z,95512.86
2023-03-16T06:19:24.076Z,95511.91
2023-03-16T06:21:56.134Z,95515.34
2023-03-16T06:24:25.357Z,95522.89
2023-03-16T06:26:53.536Z,95529.11
2023-03-16T06:29:22.969Z,95531.81
2023-03-16T06:31:52.747Z,95535.35
2023-03-16T06:34:21.265Z,95539.42
2023-03-16T06:36:49.283Z,95543.45
2023-03-16T06:40:17.884Z,95547.98
2023-03-16T06:44:27.202Z,95554.12
2023-03-16T06:47:55.520Z,95562.82
2023-03-16T06:50:24.826Z,95572.61
2023-03-16T06:52:52.926Z,95577.36
2023-03-16T06:55:50.096Z,95581.08
2023-03-16T06:58:19.232Z,95582.23
2023-03-16T07:00:48.554Z,95583.21
2023-03-16T07:03:21.238Z,95589.09
2023-03-16T07:06:13.517Z,95591.27
2023-03-16T07:08:44.917Z,95595.27
2023-03-16T07:11:14.957Z,95596.56
2023-03-16T07:13:44.578Z,95599.55
2023-03-16T07:16:13.595Z,95601.50
2023-03-16T07:18:44.541Z,95602.34
2023-03-16T07:21:17.238Z,95604.02
2023-03-16T07:24:46.674Z,95607.02
2023-03-16T07:27:17.207Z,95608.33
2023-03-16T07:29:46.556Z,95611.61
2023-03-16T07:32:18.315Z,95613.61
2023-03-16T07:34:58.130Z,95618.89
2023-03-16T07:37:27.880Z,95619.67
2023-03-16T07:39:57.754Z,95625.73
2023-03-16T07:42:27.250Z,95628.00
2023-03-16T07:45:07.972Z,95628.52
2023-03-16T07:48:18.357Z,95633.98
2023-03-16T07:51:32.968Z,95639.15
2023-03-16T07:54:30.163Z,95644.61
2023-03-16T07:58:02.300Z,95647.35
2023-03-16T08:01:51.979Z,95647.79
2023-03-16T08:05:21.473Z,95656.99
2023-03-16T08:07:54.115Z,95659.30
2023-03-16T08:11:16.114Z,95660.35
2023-03-16T08:14:43.468Z,95664.16
2023-03-16T08:17:45.253Z,95668.42
2023-03-16T08:21:02.109Z,95670.42
2023-03-16T08:24:18.449Z,95671.48
2023-03-16T08:26:47.609Z,95673.60
2023-03-16T08:29:18.806Z,95677.13
2023-03-16T08:31:47.140Z,95681.17
2023-03-16T08:34:23.807Z,95679.23
2023-03-16T08:36:52.528Z,95682.86
2023-03-16T08:39:20.631Z,95688.82
2023-03-16T08:41:49.073Z,95692.14
2023-03-16T08:44:28.386Z,95690.39
2023-03-16T08:47:20.889Z,95691.19
2023-03-16T08:50:10.012Z,95697.12
2023-03-16T08:52:38.486Z,95702.64
2023-03-16T08:55:09.799Z,95705.07
2023-03-16T08:57:39.868Z,95707.02
2023-03-16T09:00:15.922Z,95709.70
2023-03-16T09:02:44.849Z,95711.19
2023-03-16T09:05:15.002Z,95713.58
2023-03-16T09:08:23.710Z,95717.58
2023-03-16T09:11:07.591Z,95719.66
2023-03-16T09:13:40.435Z,95722.79
2023-03-16T09:16:10.149Z,95724.19
2023-03-16T09:18:38.792Z,95729.86
2023-03-16T09:21:10.440Z,95735.40
2023-03-16T09:23:38.732Z,95738.11
2023-03-16T09:26:07.627Z,95743.50
2023-03-16T09:28:39.058Z,95744.81
2023-03-16T09:31:08.251Z,95748.45
2023-03-16T09:33:37.034Z,95754.88
2023-03-16T09:36:06.100Z,95756.20
2023-03-16T09:38:34.405Z,95767.08
2023-03-16T09:41:16.503Z,95767.04
2023-03-16T09:43:58.390Z,95773.83
2023-03-16T09:46:27.143Z,95777.92
2023-03-16T09:48:57.961Z,95778.80
2023-03-16T09:51:38.770Z,95779.80
2023-03-16T09:54:19.320Z,95786.11
2023-03-16T09:56:54.703Z,95789.08
2023-03-16T09:59:45.161Z,95791.69
2023-03-16T10:03:20.485Z,95790.94
2023-03-16T10:05:57.424Z,95793.55
2023-03-16T10:08:55.358Z,95793.21
2023-03-16T10:11:36.687Z,95799.77
2023-03-16T10:14:26.057Z,95803.66
2023-03-16T10:17:43.162Z,95803.75
2023-03-16T10:20:17.564Z,95809.27
2023-03-16T10:22:48.097Z,95811.90
2023-03-16T10:25:19.715Z,95813.75
2023-03-16T10:28:48.461Z,95816.64
2023-03-16T10:32:52.336Z,95818.27
2023-03-16T10:36:29.190Z,95817.33
2023-03-16T10:40:38.732Z,95819.80
2023-03-16T10:44:30.375Z,95822.60
2023-03-16T10:46:58.830Z,95826.06
2023-03-16T10:49:29.991Z,95823.64
2023-03-16T10:52:25.064Z,95827.54
2023-03-16T10:56:09.358Z,95831.36
2023-03-16T11:00:20.510Z,95831.55
2023-03-16T11:04:29.747Z,95829.02
2023-03-16T11:06:59.194Z,95833.14
2023-03-16T11:13:37.904Z,95841.45
2023-03-16T11:16:31.214Z,95844.61
2023-03-16T11:19:21.183Z,95845.98
2023-03-16T11:22:42.393Z,95848.18
2023-03-16T11:25:26.992Z,95845.45
2023-03-16T11:28:26.963Z,95846.38
2023-03-16T11:32:45.608Z,95850.54
2023-03-16T11:35:33.437Z,95851.46
2023-03-16T11:43:54.660Z,95853.30
2023-03-16T11:48:36.323Z,95853.65
2023-03-16T11:52:19.317Z,95855.55
2023-03-16T11:54:55.684Z,95856.98
2023-03-16T11:57:57.074Z,95863.14
2023-03-16T12:00:34.099Z,95865.09
2023-03-16T12:03:50.749Z,95870.02
2023-03-16T12:06:44.068Z,95874.53
2023-03-16T12:09:32.369Z,95874.23
2023-03-16T12:12:24.972Z,95875.27
2023-03-16T12:14:58.849Z,95877.52
2023-03-16T12:17:53.621Z,95878.34
2023-03-16T12:20:26.938Z,95881.22
2023-03-16T12:23:27.290Z,95885.72
2023-03-16T12:25:59.935Z,95887.38
2023-03-16T12:28:30.186Z,95886.30
2023-03-16T12:32:05.393Z,95887.95
2023-03-16T12:36:37.506Z,95891.53
2023-03-16T12:41:18.068Z,95889.33
2023-03-16T12:45:08.746Z,95893.28
2023-03-16T12:47:51.002Z,95896.89
2023-03-16T12:51:35.802Z,95901.65
2023-03-16T12:56:07.570Z,95904.46
2023-03-16T13:00:39.527Z,95905.88
2023-03-16T13:04:51.905Z,95908.20
2023-03-16T13:09:04.961Z,95912.88
2023-03-16T13:13:30.632Z,95918.14
2023-03-16T13:17:32.395Z,95920.55
2023-03-16T13:21:28.245Z,95927.48
2023-03-16T13:25:39.929Z,95935.48
2023-03-16T13:29:56.248Z,95935.69
2023-03-16T13:33:20.636Z,95940.48
2023-03-16T13:36:14.405Z,95939.33
2023-03-16T13:39:19.204Z,95944.84
2023-03-16T13:42:22.296Z,95950.05
2023-03-16T13:45:17.278Z,95949.23
2023-03-16T13:48:56.192Z,95947.63
2023-03-16T13:52:12.647Z,95947.39
2023-03-16T13:55:18.490Z,95951.25
2023-03-16T13:58:20.741Z,95952.52
2023-03-16T14:01:26.093Z,95957.26
2023-03-16T14:04:24.270Z,95963.20
2023-03-16T14:07:21.893Z,95965.04
2023-03-16T14:10:19.268Z,95969.14
2023-03-16T14:13:31.032Z,95973.21
2023-03-16T14:16:28.417Z,95980.09
2023-03-16T14:19:34.592Z,95984.99
2023-03-16T14:22:53.563Z,95987.55
2023-03-16T14:25:56.711Z,95991.95
2023-03-16T14:29:23.244Z,95993.94
2023-03-16T14:32:42.484Z,95994.91
2023-03-16T14:36:01.555Z,95999.79
2023-03-16T14:39:16.881Z,96003.98
2023-03-16T14:42:39.886Z,96007.52
2023-03-16T14:45:40.370Z,96008.42
2023-03-16T14:48:36.727Z,96012.40
2023-03-16T14:51:35.449Z,96019.04
2023-03-16T14:55:08.076Z,96016.80
2023-03-16T14:58:22.435Z,96022.71
2023-03-16T15:01:28.730Z,96023.76
2023-03-16T15:04:53.294Z,96030.73
2023-03-16T15:08:11.578Z,96028.10
2023-03-16T15:11:24.795Z,96031.83
2023-03-16T15:15:35.730Z,96036.59
2023-03-16T15:19:29.868Z,96037.23
2023-03-16T15:22:58.906Z,96039.65
2023-03-16T15:26:52.246Z,96042.38
2023-03-16T15:29:47.300Z,96045.08
2023-03-16T15:32:56.859Z,96049.85
2023-03-16T15:35:52.638Z,96051.91
2023-03-16T15:38:49.226Z,96056.50
2023-03-16T15:42:43.693Z,96058.11
2023-03-16T15:47:15.897Z,96063.66
2023-03-16T15:51:35.784Z,96072.10
2023-03-16T15:54:29.539Z,96076.19
2023-03-16T15:57:21.095Z,96078.12
2023-03-16T16:00:28.033Z,96081.70
2023-03-16T16:03:41.990Z,96085.55
2023-03-16T16:07:35.080Z,96089.28
2023-03-16T16:11:16.942Z,96094.27
2023-03-16T16:14:23.027Z,96097.09
2023-03-16T16:18:21.498Z,96103.79
2023-03-16T16:22:19.814Z,96109.13
2023-03-16T16:26:16.909Z,96116.80
2023-03-16T16:31:02.213Z,96123.52
2023-03-16T16:35:34.782Z,96131.14
2023-03-16T16:39:17.118Z,96134.44
2023-03-16T16:42:30.727Z,96140.10
2023-03-16T16:45:54.649Z,96149.63
2023-03-16T16:49:28.541Z,96154.35
2023-03-16T16:52:22.294Z,96162.14
2023-03-16T16:55:51.579Z,96165.00
2023-03-16T17:00:24.877Z,96172.52
2023-03-16T17:04:57.506Z,96179.10
2023-03-16T17:08:31.723Z,96182.98
2023-03-16T17:11:27.124Z,96182.84
2023-03-16T17:14:22.593Z,96185.79
2023-03-16T17:17:19.701Z,96187.70
2023-03-16T17:20:30.268Z,96192.34
2023-03-16T17:23:51.138Z,96193.45
2023-03-16T17:26:47.001Z,96198.95
2023-03-16T17:29:43.443Z,96203.92
2023-03-16T17:32:35.948Z,96209.25
2023-03-16T17:36:28.325Z,96208.60
2023-03-16T17:41:03.713Z,96213.76
2023-03-16T17:45:18.818Z,96218.23
2023-03-16T17:49:36.105Z,96222.16
2023-03-16T17:53:30.204Z,96219.14
2023-03-16T17:57:24.360Z,96224.44
2023-03-16T18:01:23.076Z,96228.72
2023-03-16T18:05:36.035Z,96229.10
2023-03-16T18:09:47.171Z,96234.23
2023-03-16T18:13:30.890Z,96234.39
2023-03-16T18:16:30.046Z,96235.58
2023-03-16T18:19:25.433Z,96239.84
2023-03-16T18:22:20.295Z,96237.42
2023-03-16T18:25:33.204Z,96239.14
2023-03-16T18:28:27.512Z,96245.30
2023-03-16T18:31:28.680Z,96246.69
2023-03-16T18:34:24.047Z,96247.94
2023-03-16T18:37:28.766Z,96248.70
2023-03-16T18:40:26.686Z,96252.15
2023-03-16T18:43:36.921Z,96254.20
2023-03-16T18:46:54.975Z,96256.06
2023-03-16T18:50:07.912Z,96259.80
2023-03-16T18:53:01.240Z,96261.59
2023-03-16T18:56:05.124Z,96260.69
2023-03-16T18:59:10.109Z,96263.52
2023-03-16T19:02:06.067Z,96270.63
2023-03-16T19:05:30.127Z,96271.59
2023-03-16T19:08:42.744Z,96273.42
2023-03-16T19:11:49.065Z,96277.09
2023-03-16T19:14:48.238Z,96277.74
2023-03-16T19:17:46.496Z,96283.89
2023-03-16T19:21:08.064Z,96286.92
2023-03-16T19:24:06.168Z,96287.64
2023-03-16T19:27:59.494Z,96291.91
2023-03-16T19:32:11.787Z,96296.79
2023-03-16T19:36:04.289Z,96299.29
2023-03-16T19:40:16.618Z,96301.01
2023-03-16T19:43:32.559Z,96304.16
2023-03-16T19:46:47.826Z,96313.02
2023-03-16T19:49:51.632Z,96315.09
2023-03-16T19:52:48.058Z,96314.56
2023-03-16T19:55:52.292Z,96318.51
2023-03-16T19:59:12.032Z,96321.01
2023-03-16T20:03:36.652Z,96325.62
2023-03-16T20:07:43.374Z,96328.52
2023-03-16T20:11:39.266Z,96330.60
2023-03-16T20:15:16.514Z,96330.79
2023-03-16T20:18:35.044Z,96329.90
2023-03-16T20:22:30.404Z,96334.94
2023-03-16T20:26:22.216Z,96337.08
2023-03-16T20:30:06.513Z,96337.17
2023-03-16T20:33:23.375Z,96336.52
2023-03-16T20:36:49.638Z,96340.68
2023-03-16T20:40:09.958Z,96342.83
2023-03-16T20:43:15.886Z,96349.84
2023-03-16T20:47:15.845Z,96353.98
2023-03-16T20:50:55.992Z,96358.96
2023-03-16T20:53:56.712Z,96364.48
2023-03-16T20:56:51.874Z,96366.41
2023-03-16T21:00:05.469Z,96369.84
2023-03-16T21:03:02.523Z,96377.20
2023-03-16T21:06:31.855Z,96376.35
2023-03-16T21:09:30.038Z,96378.56
2023-03-16T21:12:37.049Z,96376.02
2023-03-16T21:15:38.065Z,96381.14
2023-03-16T21:18:51.532Z,96379.13
2023-03-16T21:21:47.962Z,96382.05
2023-03-16T21:24:44.792Z,96380.89
2023-03-16T21:27:39.830Z,96383.98
2023-03-16T21:30:37.500Z,96385.36
2023-03-16T21:33:44.125Z,96384.04
2023-03-16T21:36:41.336Z,96385.46
2023-03-16T21:39:36.403Z,96389.60
2023-03-16T21:42:28.424Z,96394.77
2023-03-16T21:45:22.060Z,96395.80
2023-03-16T21:48:20.475Z,96398.38
2023-03-16T21:51:19.592Z,96400.13
2023-03-16T21:54:15.718Z,96400.70
2023-03-16T21:57:15.896Z,96401.24
2023-03-16T22:00:11.047Z,96398.91
2023-03-16T22:03:04.357Z,96400.82
2023-03-16T22:05:58.021Z,96401.70
2023-03-16T22:08:51.555Z,96406.84
2023-03-16T22:11:44.079Z,96406.38
2023-03-16T22:14:36.864Z,96409.47
2023-03-16T22:17:29.334Z,96410.29
2023-03-16T22:20:27.222Z,96406.99
2023-03-16T22:23:34.797Z,96408.46
2023-03-16T22:26:28.772Z,96412.28
2023-03-16T22:29:29.802Z,96416.98
2023-03-16T22:32:23.024Z,96417.39
2023-03-16T22:35:35.737Z,96423.79
2023-03-16T22:38:27.545Z,96425.58
2023-03-16T22:41:21.087Z,96427.25
2023-03-16T22:44:22.406Z,96431.31
2023-03-16T22:47:26.605Z,96434.32
2023-03-16T22:50:20.613Z,96437.24
2023-03-16T22:53:18.278Z,96436.89
2023-03-16T22:56:11.055Z,96436.80
2023-03-16T22:59:11.558Z,96437.56
2023-03-16T23:02:03.689Z,96439.92
2023-03-16T23:04:56.579Z,96437.02
2023-03-16T23:07:48.904Z,96439.81
2023-03-16T23:10:42.325Z,96448.83
2023-03-16T23:13:34.500Z,96451.16
2023-03-16T23:16:34.735Z,96455.45
2023-03-16T23:19:34.125Z,96452.96
2023-03-16T23:22:27.389Z,96455.97
2023-03-16T23:25:20.681Z,96460.79
2023-03-16T23:28:18.158Z,96460.75
2023-03-16T23:31:14.568Z,96462.14
2023-03-16T23:34:19.345Z,96463.36
2023-03-16T23:37:12.062Z,96465.27
2023-03-16T23:40:04.753Z,96471.42
2023-03-16T23:43:00.852Z,96476.90
2023-03-16T23:45:52.973Z,96480.02
2023-03-16T23:48:49.385Z,96482.58
2023-03-16T23:51:41.585Z,96482.28
2023-03-16T23:54:34.111Z,96482.30
2023-03-16T23:57:27.414Z,96481.63
